sensor_id;sensor_type;location;lat;lon;timestamp;P1;durP1;ratioP1;P2;durP2;ratioP2
59756;SDS011;45631;51.962;5.974;2023-07-13T00:00:08;8.45;;;2.38;;
59756;SDS011;45631;51.962;5.974;2023-07-13T00:02:38;7.55;;;2.15;;
59756;SDS011;45631;51.962;5.974;2023-07-13T00:05:07;8.48;;;2.53;;
59756;SDS011;45631;51.962;5.974;2023-07-13T00:07:35;8.23;;;1.63;;
59756;SDS011;45631;51.962;5.974;2023-07-13T00:10:04;9.50;;;1.85;;
59756;SDS011;45631;51.962;5.974;2023-07-13T00:12:34;9.57;;;1.90;;
59756;SDS011;45631;51.962;5.974;2023-07-13T00:15:06;5.18;;;1.48;;
59756;SDS011;45631;51.962;5.974;2023-07-13T00:17:39;12.95;;;2.33;;
59756;SDS011;45631;51.962;5.974;2023-07-13T00:20:11;7.53;;;2.10;;
59756;SDS011;45631;51.962;5.974;2023-07-13T00:22:39;10.80;;;2.20;;
59756;SDS011;45631;51.962;5.974;2023-07-13T00:25:08;7.43;;;1.80;;
59756;SDS011;45631;51.962;5.974;2023-07-13T00:27:41;9.63;;;2.08;;
59756;SDS011;45631;51.962;5.974;2023-07-13T00:30:12;6.03;;;1.80;;
59756;SDS011;45631;51.962;5.974;2023-07-13T00:32:40;8.18;;;2.13;;
59756;SDS011;45631;51.962;5.974;2023-07-13T00:35:08;7.97;;;2.28;;
59756;SDS011;45631;51.962;5.974;2023-07-13T00:37:37;8.43;;;1.85;;
59756;SDS011;45631;51.962;5.974;2023-07-13T00:40:09;8.75;;;2.15;;
59756;SDS011;45631;51.962;5.974;2023-07-13T00:42:38;6.50;;;1.67;;
59756;SDS011;45631;51.962;5.974;2023-07-13T00:46:06;7.82;;;2.20;;
59756;SDS011;45631;51.962;5.974;2023-07-13T00:48:16;6.97;;;1.88;;
59756;SDS011;45631;51.962;5.974;2023-07-13T00:50:48;6.78;;;2.05;;
59756;SDS011;45631;51.962;5.974;2023-07-13T00:53:20;6.40;;;1.83;;
59756;SDS011;45631;51.962;5.974;2023-07-13T00:55:49;9.88;;;2.15;;
59756;SDS011;45631;51.962;5.974;2023-07-13T00:58:18;8.20;;;1.77;;
59756;SDS011;45631;51.962;5.974;2023-07-13T01:00:47;8.63;;;2.00;;
59756;SDS011;45631;51.962;5.974;2023-07-13T01:03:19;7.25;;;1.73;;
59756;SDS011;45631;51.962;5.974;2023-07-13T01:05:48;9.40;;;1.92;;
59756;SDS011;45631;51.962;5.974;2023-07-13T01:08:18;6.38;;;2.05;;
59756;SDS011;45631;51.962;5.974;2023-07-13T01:10:53;7.43;;;1.60;;
59756;SDS011;45631;51.962;5.974;2023-07-13T01:13:24;7.60;;;2.10;;
59756;SDS011;45631;51.962;5.974;2023-07-13T01:15:53;6.85;;;1.83;;
59756;SDS011;45631;51.962;5.974;2023-07-13T01:18:25;7.38;;;1.98;;
59756;SDS011;45631;51.962;5.974;2023-07-13T01:20:57;9.45;;;1.83;;
59756;SDS011;45631;51.962;5.974;2023-07-13T01:23:26;9.93;;;2.05;;
59756;SDS011;45631;51.962;5.974;2023-07-13T01:25:56;7.80;;;1.88;;
59756;SDS011;45631;51.962;5.974;2023-07-13T01:28:25;8.23;;;1.77;;
59756;SDS011;45631;51.962;5.974;2023-07-13T01:30:55;7.85;;;2.00;;
59756;SDS011;45631;51.962;5.974;2023-07-13T01:33:24;7.07;;;1.70;;
59756;SDS011;45631;51.962;5.974;2023-07-13T01:35:53;4.70;;;1.60;;
59756;SDS011;45631;51.962;5.974;2023-07-13T01:38:25;7.32;;;2.20;;
59756;SDS011;45631;51.962;5.974;2023-07-13T01:40:53;7.47;;;2.05;;
59756;SDS011;45631;51.962;5.974;2023-07-13T01:43:22;8.93;;;2.03;;
59756;SDS011;45631;51.962;5.974;2023-07-13T01:45:52;8.27;;;2.30;;
59756;SDS011;45631;51.962;5.974;2023-07-13T01:48:35;9.68;;;2.47;;
59756;SDS011;45631;51.962;5.974;2023-07-13T01:51:03;9.98;;;2.38;;
59756;SDS011;45631;51.962;5.974;2023-07-13T01:53:32;6.75;;;1.77;;
59756;SDS011;45631;51.962;5.974;2023-07-13T01:56:00;12.48;;;2.60;;
59756;SDS011;45631;51.962;5.974;2023-07-13T01:58:29;9.80;;;2.60;;
59756;SDS011;45631;51.962;5.974;2023-07-13T02:00:57;7.97;;;2.25;;
59756;SDS011;45631;51.962;5.974;2023-07-13T02:03:28;8.55;;;2.40;;
59756;SDS011;45631;51.962;5.974;2023-07-13T02:05:57;12.13;;;2.30;;
59756;SDS011;45631;51.962;5.974;2023-07-13T02:08:25;9.23;;;2.70;;
59756;SDS011;45631;51.962;5.974;2023-07-13T02:10:55;6.60;;;1.92;;
59756;SDS011;45631;51.962;5.974;2023-07-13T02:13:24;11.32;;;2.60;;
59756;SDS011;45631;51.962;5.974;2023-07-13T02:15:52;9.68;;;2.50;;
59756;SDS011;45631;51.962;5.974;2023-07-13T02:18:20;11.50;;;3.00;;
59756;SDS011;45631;51.962;5.974;2023-07-13T02:20:48;8.02;;;2.78;;
59756;SDS011;45631;51.962;5.974;2023-07-13T02:23:16;8.45;;;2.42;;
59756;SDS011;45631;51.962;5.974;2023-07-13T02:25:45;9.02;;;2.45;;
59756;SDS011;45631;51.962;5.974;2023-07-13T02:28:15;11.88;;;3.15;;
59756;SDS011;45631;51.962;5.974;2023-07-13T02:30:43;6.97;;;2.45;;
59756;SDS011;45631;51.962;5.974;2023-07-13T02:33:11;10.85;;;3.13;;
59756;SDS011;45631;51.962;5.974;2023-07-13T02:35:39;7.78;;;2.72;;
59756;SDS011;45631;51.962;5.974;2023-07-13T02:38:07;11.50;;;2.60;;
59756;SDS011;45631;51.962;5.974;2023-07-13T02:40:35;10.23;;;2.90;;
59756;SDS011;45631;51.962;5.974;2023-07-13T02:43:04;10.93;;;2.78;;
59756;SDS011;45631;51.962;5.974;2023-07-13T02:45:34;11.80;;;2.97;;
59756;SDS011;45631;51.962;5.974;2023-07-13T02:48:02;7.35;;;2.80;;
59756;SDS011;45631;51.962;5.974;2023-07-13T02:50:31;11.75;;;2.95;;
59756;SDS011;45631;51.962;5.974;2023-07-13T02:52:59;9.57;;;2.80;;
59756;SDS011;45631;51.962;5.974;2023-07-13T02:55:27;8.15;;;2.90;;
59756;SDS011;45631;51.962;5.974;2023-07-13T02:57:56;12.10;;;3.10;;
59756;SDS011;45631;51.962;5.974;2023-07-13T03:00:24;9.15;;;2.70;;
59756;SDS011;45631;51.962;5.974;2023-07-13T03:02:53;9.07;;;2.70;;
59756;SDS011;45631;51.962;5.974;2023-07-13T03:05:24;11.38;;;3.15;;
59756;SDS011;45631;51.962;5.974;2023-07-13T03:07:52;9.65;;;2.97;;
59756;SDS011;45631;51.962;5.974;2023-07-13T03:10:20;10.48;;;2.97;;
59756;SDS011;45631;51.962;5.974;2023-07-13T03:12:48;9.82;;;3.10;;
59756;SDS011;45631;51.962;5.974;2023-07-13T03:15:16;11.63;;;3.40;;
59756;SDS011;45631;51.962;5.974;2023-07-13T03:17:45;10.95;;;3.58;;
59756;SDS011;45631;51.962;5.974;2023-07-13T03:20:15;15.02;;;3.70;;
59756;SDS011;45631;51.962;5.974;2023-07-13T03:22:43;10.93;;;3.28;;
59756;SDS011;45631;51.962;5.974;2023-07-13T03:25:11;10.02;;;3.40;;
59756;SDS011;45631;51.962;5.974;2023-07-13T03:27:39;9.73;;;3.13;;
59756;SDS011;45631;51.962;5.974;2023-07-13T03:30:11;14.00;;;3.40;;
59756;SDS011;45631;51.962;5.974;2023-07-13T03:32:40;13.40;;;3.60;;
59756;SDS011;45631;51.962;5.974;2023-07-13T03:35:08;11.73;;;3.13;;
59756;SDS011;45631;51.962;5.974;2023-07-13T03:37:39;11.20;;;3.50;;
59756;SDS011;45631;51.962;5.974;2023-07-13T03:40:10;9.17;;;3.27;;
59756;SDS011;45631;51.962;5.974;2023-07-13T03:42:40;13.45;;;3.20;;
59756;SDS011;45631;51.962;5.974;2023-07-13T03:45:08;14.50;;;3.63;;
59756;SDS011;45631;51.962;5.974;2023-07-13T03:47:37;13.80;;;3.88;;
59756;SDS011;45631;51.962;5.974;2023-07-13T03:50:05;11.35;;;3.88;;
59756;SDS011;45631;51.962;5.974;2023-07-13T03:52:34;10.90;;;3.47;;
59756;SDS011;45631;51.962;5.974;2023-07-13T03:55:04;9.98;;;3.20;;
59756;SDS011;45631;51.962;5.974;2023-07-13T03:57:35;11.48;;;3.38;;
59756;SDS011;45631;51.962;5.974;2023-07-13T04:00:06;12.38;;;3.78;;
59756;SDS011;45631;51.962;5.974;2023-07-13T04:02:35;12.35;;;4.10;;
59756;SDS011;45631;51.962;5.974;2023-07-13T04:05:06;11.90;;;3.72;;
59756;SDS011;45631;51.962;5.974;2023-07-13T04:07:34;11.38;;;4.25;;
59756;SDS011;45631;51.962;5.974;2023-07-13T04:10:04;10.30;;;3.63;;
59756;SDS011;45631;51.962;5.974;2023-07-13T04:12:33;13.73;;;4.18;;
59756;SDS011;45631;51.962;5.974;2023-07-13T04:15:01;14.02;;;4.53;;
59756;SDS011;45631;51.962;5.974;2023-07-13T04:17:30;14.98;;;4.20;;
59756;SDS011;45631;51.962;5.974;2023-07-13T04:19:58;10.25;;;4.10;;
59756;SDS011;45631;51.962;5.974;2023-07-13T04:22:26;13.98;;;3.63;;
59756;SDS011;45631;51.962;5.974;2023-07-13T04:24:55;13.57;;;4.30;;
59756;SDS011;45631;51.962;5.974;2023-07-13T04:27:24;11.40;;;4.35;;
59756;SDS011;45631;51.962;5.974;2023-07-13T04:29:52;13.73;;;4.57;;
59756;SDS011;45631;51.962;5.974;2023-07-13T04:32:20;12.38;;;4.10;;
59756;SDS011;45631;51.962;5.974;2023-07-13T04:34:49;15.23;;;4.53;;
59756;SDS011;45631;51.962;5.974;2023-07-13T04:37:20;15.35;;;4.90;;
59756;SDS011;45631;51.962;5.974;2023-07-13T04:39:49;13.73;;;3.97;;
59756;SDS011;45631;51.962;5.974;2023-07-13T04:42:17;16.52;;;4.32;;
59756;SDS011;45631;51.962;5.974;2023-07-13T04:44:48;11.40;;;3.92;;
59756;SDS011;45631;51.962;5.974;2023-07-13T04:47:17;15.33;;;5.23;;
59756;SDS011;45631;51.962;5.974;2023-07-13T04:49:46;18.55;;;5.15;;
59756;SDS011;45631;51.962;5.974;2023-07-13T04:52:14;13.68;;;5.00;;
59756;SDS011;45631;51.962;5.974;2023-07-13T04:54:42;14.63;;;4.78;;
59756;SDS011;45631;51.962;5.974;2023-07-13T04:57:10;14.18;;;4.88;;
59756;SDS011;45631;51.962;5.974;2023-07-13T04:59:38;21.13;;;5.18;;
59756;SDS011;45631;51.962;5.974;2023-07-13T05:02:08;15.23;;;4.97;;
59756;SDS011;45631;51.962;5.974;2023-07-13T05:07:11;11.43;;;4.55;;
59756;SDS011;45631;51.962;5.974;2023-07-13T05:09:39;20.00;;;5.38;;
59756;SDS011;45631;51.962;5.974;2023-07-13T05:12:08;14.95;;;5.20;;
59756;SDS011;45631;51.962;5.974;2023-07-13T05:14:37;16.88;;;5.22;;
59756;SDS011;45631;51.962;5.974;2023-07-13T05:17:05;12.63;;;5.05;;
59756;SDS011;45631;51.962;5.974;2023-07-13T05:19:34;14.93;;;4.72;;
59756;SDS011;45631;51.962;5.974;2023-07-13T05:22:03;22.00;;;5.03;;
59756;SDS011;45631;51.962;5.974;2023-07-13T05:24:31;16.25;;;5.82;;
59756;SDS011;45631;51.962;5.974;2023-07-13T05:26:59;16.10;;;5.20;;
59756;SDS011;45631;51.962;5.974;2023-07-13T05:29:28;14.88;;;5.60;;
59756;SDS011;45631;51.962;5.974;2023-07-13T05:31:56;16.40;;;5.57;;
59756;SDS011;45631;51.962;5.974;2023-07-13T05:34:24;15.10;;;5.85;;
59756;SDS011;45631;51.962;5.974;2023-07-13T05:36:54;17.08;;;6.50;;
59756;SDS011;45631;51.962;5.974;2023-07-13T05:39:25;17.65;;;6.32;;
59756;SDS011;45631;51.962;5.974;2023-07-13T05:41:54;17.17;;;6.40;;
59756;SDS011;45631;51.962;5.974;2023-07-13T05:44:22;18.95;;;6.72;;
59756;SDS011;45631;51.962;5.974;2023-07-13T05:46:50;19.13;;;6.50;;
59756;SDS011;45631;51.962;5.974;2023-07-13T05:49:18;15.82;;;6.70;;
59756;SDS011;45631;51.962;5.974;2023-07-13T05:51:46;18.70;;;6.95;;
59756;SDS011;45631;51.962;5.974;2023-07-13T05:54:16;18.95;;;6.95;;
59756;SDS011;45631;51.962;5.974;2023-07-13T05:56:44;18.33;;;6.70;;
59756;SDS011;45631;51.962;5.974;2023-07-13T05:59:12;19.23;;;6.57;;
59756;SDS011;45631;51.962;5.974;2023-07-13T06:01:41;18.05;;;7.30;;
59756;SDS011;45631;51.962;5.974;2023-07-13T06:04:09;17.40;;;7.50;;
59756;SDS011;45631;51.962;5.974;2023-07-13T06:06:37;20.45;;;7.78;;
59756;SDS011;45631;51.962;5.974;2023-07-13T06:09:05;20.60;;;7.38;;
59756;SDS011;45631;51.962;5.974;2023-07-13T06:11:35;20.98;;;7.82;;
59756;SDS011;45631;51.962;5.974;2023-07-13T06:14:03;17.75;;;7.50;;
59756;SDS011;45631;51.962;5.974;2023-07-13T06:16:31;20.58;;;8.18;;
59756;SDS011;45631;51.962;5.974;2023-07-13T06:18:59;21.13;;;9.77;;
59756;SDS011;45631;51.962;5.974;2023-07-13T06:21:27;25.00;;;9.40;;
59756;SDS011;45631;51.962;5.974;2023-07-13T06:23:59;21.95;;;9.60;;
59756;SDS011;45631;51.962;5.974;2023-07-13T06:26:27;21.75;;;10.02;;
59756;SDS011;45631;51.962;5.974;2023-07-13T06:28:57;20.80;;;9.30;;
59756;SDS011;45631;51.962;5.974;2023-07-13T06:31:25;24.90;;;11.82;;
59756;SDS011;45631;51.962;5.974;2023-07-13T06:33:53;24.42;;;10.60;;
59756;SDS011;45631;51.962;5.974;2023-07-13T06:36:22;21.10;;;10.70;;
59756;SDS011;45631;51.962;5.974;2023-07-13T06:38:50;21.90;;;10.90;;
59756;SDS011;45631;51.962;5.974;2023-07-13T06:41:18;23.23;;;10.88;;
59756;SDS011;45631;51.962;5.974;2023-07-13T06:43:46;19.20;;;9.38;;
59756;SDS011;45631;51.962;5.974;2023-07-13T06:46:16;24.20;;;11.27;;
59756;SDS011;45631;51.962;5.974;2023-07-13T06:48:44;21.63;;;10.27;;
59756;SDS011;45631;51.962;5.974;2023-07-13T06:51:12;26.80;;;10.73;;
59756;SDS011;45631;51.962;5.974;2023-07-13T06:53:41;23.88;;;10.77;;
59756;SDS011;45631;51.962;5.974;2023-07-13T06:56:10;19.38;;;10.07;;
59756;SDS011;45631;51.962;5.974;2023-07-13T06:58:38;23.70;;;10.43;;
59756;SDS011;45631;51.962;5.974;2023-07-13T07:01:06;18.20;;;9.80;;
59756;SDS011;45631;51.962;5.974;2023-07-13T07:03:36;25.05;;;11.43;;
59756;SDS011;45631;51.962;5.974;2023-07-13T07:06:08;22.73;;;10.95;;
59756;SDS011;45631;51.962;5.974;2023-07-13T07:08:41;22.73;;;11.38;;
59756;SDS011;45631;51.962;5.974;2023-07-13T07:11:11;22.75;;;11.63;;
59756;SDS011;45631;51.962;5.974;2023-07-13T07:13:42;19.83;;;10.05;;
59756;SDS011;45631;51.962;5.974;2023-07-13T07:16:10;22.23;;;10.75;;
59756;SDS011;45631;51.962;5.974;2023-07-13T07:18:40;26.60;;;11.98;;
59756;SDS011;45631;51.962;5.974;2023-07-13T07:21:09;20.42;;;9.90;;
59756;SDS011;45631;51.962;5.974;2023-07-13T07:23:38;22.73;;;10.15;;
59756;SDS011;45631;51.962;5.974;2023-07-13T07:26:06;18.45;;;9.52;;
59756;SDS011;45631;51.962;5.974;2023-07-13T07:28:35;21.83;;;9.93;;
59756;SDS011;45631;51.962;5.974;2023-07-13T07:31:06;21.17;;;10.75;;
59756;SDS011;45631;51.962;5.974;2023-07-13T07:33:37;18.67;;;10.13;;
59756;SDS011;45631;51.962;5.974;2023-07-13T07:36:07;20.40;;;10.85;;
59756;SDS011;45631;51.962;5.974;2023-07-13T07:38:40;19.98;;;11.52;;
59756;SDS011;45631;51.962;5.974;2023-07-13T07:41:09;20.45;;;10.80;;
59756;SDS011;45631;51.962;5.974;2023-07-13T07:43:43;18.80;;;10.25;;
59756;SDS011;45631;51.962;5.974;2023-07-13T07:46:11;18.77;;;9.13;;
59756;SDS011;45631;51.962;5.974;2023-07-13T07:48:40;21.08;;;9.70;;
59756;SDS011;45631;51.962;5.974;2023-07-13T07:51:10;17.38;;;9.73;;
59756;SDS011;45631;51.962;5.974;2023-07-13T07:53:38;19.45;;;10.30;;
59756;SDS011;45631;51.962;5.974;2023-07-13T07:56:06;18.60;;;9.57;;
59756;SDS011;45631;51.962;5.974;2023-07-13T07:58:37;19.98;;;9.00;;
59756;SDS011;45631;51.962;5.974;2023-07-13T08:01:08;19.25;;;9.98;;
59756;SDS011;45631;51.962;5.974;2023-07-13T08:03:39;19.27;;;9.60;;
59756;SDS011;45631;51.962;5.974;2023-07-13T08:06:12;18.05;;;9.63;;
59756;SDS011;45631;51.962;5.974;2023-07-13T08:09:00;16.45;;;8.88;;
59756;SDS011;45631;51.962;5.974;2023-07-13T08:11:30;21.20;;;9.18;;
59756;SDS011;45631;51.962;5.974;2023-07-13T08:14:02;21.80;;;9.57;;
59756;SDS011;45631;51.962;5.974;2023-07-13T08:16:32;17.88;;;9.60;;
59756;SDS011;45631;51.962;5.974;2023-07-13T08:19:00;16.63;;;8.90;;
59756;SDS011;45631;51.962;5.974;2023-07-13T08:21:30;17.92;;;8.45;;
59756;SDS011;45631;51.962;5.974;2023-07-13T08:23:58;18.17;;;9.02;;
59756;SDS011;45631;51.962;5.974;2023-07-13T08:26:26;18.63;;;8.60;;
59756;SDS011;45631;51.962;5.974;2023-07-13T08:28:54;15.55;;;9.07;;
59756;SDS011;45631;51.962;5.974;2023-07-13T08:31:23;17.17;;;8.43;;
59756;SDS011;45631;51.962;5.974;2023-07-13T08:33:51;15.48;;;8.18;;
59756;SDS011;45631;51.962;5.974;2023-07-13T08:36:19;17.65;;;8.25;;
59756;SDS011;45631;51.962;5.974;2023-07-13T08:38:48;17.50;;;7.07;;
59756;SDS011;45631;51.962;5.974;2023-07-13T08:41:17;19.40;;;8.18;;
59756;SDS011;45631;51.962;5.974;2023-07-13T08:43:46;16.95;;;7.78;;
59756;SDS011;45631;51.962;5.974;2023-07-13T08:46:17;19.25;;;8.65;;
59756;SDS011;45631;51.962;5.974;2023-07-13T08:48:49;18.30;;;9.43;;
59756;SDS011;45631;51.962;5.974;2023-07-13T08:54:12;17.85;;;8.00;;
59756;SDS011;45631;51.962;5.974;2023-07-13T08:56:48;17.60;;;8.23;;
59756;SDS011;45631;51.962;5.974;2023-07-13T08:59:21;15.82;;;8.80;;
59756;SDS011;45631;51.962;5.974;2023-07-13T09:04:49;15.35;;;8.05;;
59756;SDS011;45631;51.962;5.974;2023-07-13T09:07:23;15.55;;;7.75;;
59756;SDS011;45631;51.962;5.974;2023-07-13T09:10:05;17.92;;;8.00;;
59756;SDS011;45631;51.962;5.974;2023-07-13T09:12:45;14.90;;;7.68;;
59756;SDS011;45631;51.962;5.974;2023-07-13T09:15:24;18.70;;;8.18;;
59756;SDS011;45631;51.962;5.974;2023-07-13T09:17:59;15.63;;;6.15;;
59756;SDS011;45631;51.962;5.974;2023-07-13T09:20:32;16.73;;;6.38;;
59756;SDS011;45631;51.962;5.974;2023-07-13T09:23:05;13.63;;;7.03;;
59756;SDS011;45631;51.962;5.974;2023-07-13T09:25:40;16.33;;;6.65;;
59756;SDS011;45631;51.962;5.974;2023-07-13T09:28:15;10.20;;;5.95;;
59756;SDS011;45631;51.962;5.974;2023-07-13T09:30:46;13.50;;;6.35;;
59756;SDS011;45631;51.962;5.974;2023-07-13T09:33:20;12.70;;;5.55;;
59756;SDS011;45631;51.962;5.974;2023-07-13T09:35:49;11.70;;;5.18;;
59756;SDS011;45631;51.962;5.974;2023-07-13T09:38:18;14.02;;;5.88;;
59756;SDS011;45631;51.962;5.974;2023-07-13T09:41:11;9.38;;;4.88;;
59756;SDS011;45631;51.962;5.974;2023-07-13T09:44:06;11.63;;;5.05;;
59756;SDS011;45631;51.962;5.974;2023-07-13T09:46:39;11.77;;;5.43;;
59756;SDS011;45631;51.962;5.974;2023-07-13T09:49:12;12.02;;;5.05;;
59756;SDS011;45631;51.962;5.974;2023-07-13T09:51:41;10.88;;;5.35;;
59756;SDS011;45631;51.962;5.974;2023-07-13T09:54:18;11.23;;;5.40;;
59756;SDS011;45631;51.962;5.974;2023-07-13T09:56:48;11.55;;;5.70;;
59756;SDS011;45631;51.962;5.974;2023-07-13T09:59:23;11.90;;;5.93;;
59756;SDS011;45631;51.962;5.974;2023-07-13T10:01:55;13.40;;;6.40;;
59756;SDS011;45631;51.962;5.974;2023-07-13T10:04:27;11.63;;;5.95;;
59756;SDS011;45631;51.962;5.974;2023-07-13T10:07:04;10.93;;;5.50;;
59756;SDS011;45631;51.962;5.974;2023-07-13T10:09:52;13.15;;;6.18;;
59756;SDS011;45631;51.962;5.974;2023-07-13T10:12:23;11.45;;;6.00;;
59756;SDS011;45631;51.962;5.974;2023-07-13T10:14:52;12.52;;;6.22;;
59756;SDS011;45631;51.962;5.974;2023-07-13T10:17:42;13.70;;;6.28;;
59756;SDS011;45631;51.962;5.974;2023-07-13T10:20:12;13.18;;;6.20;;
59756;SDS011;45631;51.962;5.974;2023-07-13T10:22:44;12.02;;;6.22;;
59756;SDS011;45631;51.962;5.974;2023-07-13T10:25:17;11.13;;;5.53;;
59756;SDS011;45631;51.962;5.974;2023-07-13T10:27:50;12.35;;;6.05;;
59756;SDS011;45631;51.962;5.974;2023-07-13T10:30:22;11.63;;;5.70;;
59756;SDS011;45631;51.962;5.974;2023-07-13T10:32:57;12.30;;;5.03;;
59756;SDS011;45631;51.962;5.974;2023-07-13T10:35:28;11.90;;;5.82;;
59756;SDS011;45631;51.962;5.974;2023-07-13T10:38:02;10.25;;;4.90;;
59756;SDS011;45631;51.962;5.974;2023-07-13T10:40:35;12.77;;;5.93;;
59756;SDS011;45631;51.962;5.974;2023-07-13T10:43:14;13.02;;;5.00;;
59756;SDS011;45631;51.962;5.974;2023-07-13T10:45:46;13.65;;;5.45;;
59756;SDS011;45631;51.962;5.974;2023-07-13T10:48:16;13.32;;;5.70;;
59756;SDS011;45631;51.962;5.974;2023-07-13T10:50:46;13.57;;;5.15;;
59756;SDS011;45631;51.962;5.974;2023-07-13T10:53:20;13.02;;;5.78;;
59756;SDS011;45631;51.962;5.974;2023-07-13T10:55:57;14.20;;;5.95;;
59756;SDS011;45631;51.962;5.974;2023-07-13T10:58:31;15.82;;;5.75;;
59756;SDS011;45631;51.962;5.974;2023-07-13T11:01:03;15.70;;;5.85;;
59756;SDS011;45631;51.962;5.974;2023-07-13T11:03:37;13.25;;;5.10;;
59756;SDS011;45631;51.962;5.974;2023-07-13T11:06:17;10.48;;;4.85;;
59756;SDS011;45631;51.962;5.974;2023-07-13T11:09:07;8.73;;;3.85;;
59756;SDS011;45631;51.962;5.974;2023-07-13T11:11:46;9.15;;;4.30;;
59756;SDS011;45631;51.962;5.974;2023-07-13T11:14:34;9.27;;;4.20;;
59756;SDS011;45631;51.962;5.974;2023-07-13T11:20:09;9.90;;;3.78;;
59756;SDS011;45631;51.962;5.974;2023-07-13T11:22:49;9.20;;;3.67;;
59756;SDS011;45631;51.962;5.974;2023-07-13T11:25:25;10.13;;;3.70;;
59756;SDS011;45631;51.962;5.974;2023-07-13T11:28:17;11.35;;;3.90;;
59756;SDS011;45631;51.962;5.974;2023-07-13T11:31:00;9.05;;;3.70;;
59756;SDS011;45631;51.962;5.974;2023-07-13T11:33:49;8.55;;;3.22;;
59756;SDS011;45631;51.962;5.974;2023-07-13T11:36:28;9.17;;;3.13;;
59756;SDS011;45631;51.962;5.974;2023-07-13T11:39:00;8.52;;;2.95;;
59756;SDS011;45631;51.962;5.974;2023-07-13T11:41:33;9.25;;;2.70;;
59756;SDS011;45631;51.962;5.974;2023-07-13T11:44:07;11.95;;;2.80;;
59756;SDS011;45631;51.962;5.974;2023-07-13T11:46:43;9.38;;;2.90;;
59756;SDS011;45631;51.962;5.974;2023-07-13T11:49:17;8.40;;;2.55;;
59756;SDS011;45631;51.962;5.974;2023-07-13T11:51:49;8.23;;;2.42;;
59756;SDS011;45631;51.962;5.974;2023-07-13T11:54:25;9.57;;;2.88;;
59756;SDS011;45631;51.962;5.974;2023-07-13T11:56:57;11.60;;;2.95;;
59756;SDS011;45631;51.962;5.974;2023-07-13T11:59:29;8.60;;;2.67;;
59756;SDS011;45631;51.962;5.974;2023-07-13T12:02:08;8.82;;;2.70;;
59756;SDS011;45631;51.962;5.974;2023-07-13T12:04:44;8.20;;;2.60;;
59756;SDS011;45631;51.962;5.974;2023-07-13T12:07:14;7.80;;;2.33;;
59756;SDS011;45631;51.962;5.974;2023-07-13T12:09:44;11.48;;;2.78;;
59756;SDS011;45631;51.962;5.974;2023-07-13T12:12:13;10.88;;;2.88;;
59756;SDS011;45631;51.962;5.974;2023-07-13T12:14:45;9.88;;;2.90;;
59756;SDS011;45631;51.962;5.974;2023-07-13T12:17:18;8.55;;;2.92;;
59756;SDS011;45631;51.962;5.974;2023-07-13T12:19:48;7.53;;;3.20;;
59756;SDS011;45631;51.962;5.974;2023-07-13T12:22:18;6.57;;;2.78;;
59756;SDS011;45631;51.962;5.974;2023-07-13T12:24:49;8.82;;;3.25;;
59756;SDS011;45631;51.962;5.974;2023-07-13T12:27:21;6.88;;;3.05;;
59756;SDS011;45631;51.962;5.974;2023-07-13T12:29:52;8.35;;;3.08;;
59756;SDS011;45631;51.962;5.974;2023-07-13T12:32:26;8.25;;;2.65;;
59756;SDS011;45631;51.962;5.974;2023-07-13T12:35:04;8.27;;;2.90;;
59756;SDS011;45631;51.962;5.974;2023-07-13T12:37:42;5.63;;;2.30;;
59756;SDS011;45631;51.962;5.974;2023-07-13T12:40:13;5.65;;;2.33;;
59756;SDS011;45631;51.962;5.974;2023-07-13T12:42:42;8.73;;;2.50;;
59756;SDS011;45631;51.962;5.974;2023-07-13T12:45:12;7.45;;;2.42;;
59756;SDS011;45631;51.962;5.974;2023-07-13T12:47:49;7.65;;;2.42;;
59756;SDS011;45631;51.962;5.974;2023-07-13T12:50:19;6.00;;;2.20;;
59756;SDS011;45631;51.962;5.974;2023-07-13T12:52:50;8.68;;;2.80;;
59756;SDS011;45631;51.962;5.974;2023-07-13T12:55:20;7.15;;;2.70;;
59756;SDS011;45631;51.962;5.974;2023-07-13T12:57:53;7.15;;;2.40;;
59756;SDS011;45631;51.962;5.974;2023-07-13T13:00:26;8.90;;;2.65;;
59756;SDS011;45631;51.962;5.974;2023-07-13T13:03:04;6.75;;;2.25;;
59756;SDS011;45631;51.962;5.974;2023-07-13T13:05:41;7.30;;;2.67;;
59756;SDS011;45631;51.962;5.974;2023-07-13T13:08:12;9.25;;;2.78;;
59756;SDS011;45631;51.962;5.974;2023-07-13T13:10:40;7.18;;;2.38;;
59756;SDS011;45631;51.962;5.974;2023-07-13T13:13:08;6.05;;;2.55;;
59756;SDS011;45631;51.962;5.974;2023-07-13T13:15:37;10.77;;;2.65;;
59756;SDS011;45631;51.962;5.974;2023-07-13T13:18:12;6.93;;;1.85;;
59756;SDS011;45631;51.962;5.974;2023-07-13T13:20:44;6.28;;;2.20;;
59756;SDS011;45631;51.962;5.974;2023-07-13T13:23:13;7.57;;;2.15;;
59756;SDS011;45631;51.962;5.974;2023-07-13T13:25:45;5.87;;;2.27;;
59756;SDS011;45631;51.962;5.974;2023-07-13T13:28:14;6.63;;;2.58;;
59756;SDS011;45631;51.962;5.974;2023-07-13T13:30:44;5.68;;;2.25;;
59756;SDS011;45631;51.962;5.974;2023-07-13T13:33:16;6.47;;;2.30;;
59756;SDS011;45631;51.962;5.974;2023-07-13T13:35:46;5.37;;;1.80;;
59756;SDS011;45631;51.962;5.974;2023-07-13T13:38:15;6.43;;;1.92;;
59756;SDS011;45631;51.962;5.974;2023-07-13T13:40:45;5.75;;;1.80;;
59756;SDS011;45631;51.962;5.974;2023-07-13T13:43:14;5.75;;;1.90;;
59756;SDS011;45631;51.962;5.974;2023-07-13T13:45:44;4.90;;;1.90;;
59756;SDS011;45631;51.962;5.974;2023-07-13T13:48:15;7.40;;;1.95;;
59756;SDS011;45631;51.962;5.974;2023-07-13T13:50:46;8.23;;;2.20;;
59756;SDS011;45631;51.962;5.974;2023-07-13T13:53:15;7.05;;;2.40;;
59756;SDS011;45631;51.962;5.974;2023-07-13T13:55:43;5.78;;;1.80;;
59756;SDS011;45631;51.962;5.974;2023-07-13T13:58:14;6.45;;;2.30;;
59756;SDS011;45631;51.962;5.974;2023-07-13T14:00:42;4.85;;;1.80;;
59756;SDS011;45631;51.962;5.974;2023-07-13T14:03:14;4.38;;;1.83;;
59756;SDS011;45631;51.962;5.974;2023-07-13T14:05:44;6.00;;;2.00;;
59756;SDS011;45631;51.962;5.974;2023-07-13T14:08:14;4.43;;;1.50;;
59756;SDS011;45631;51.962;5.974;2023-07-13T14:10:44;5.25;;;1.85;;
59756;SDS011;45631;51.962;5.974;2023-07-13T14:13:16;6.15;;;2.38;;
59756;SDS011;45631;51.962;5.974;2023-07-13T14:15:46;4.70;;;1.80;;
59756;SDS011;45631;51.962;5.974;2023-07-13T14:18:16;6.28;;;2.00;;
59756;SDS011;45631;51.962;5.974;2023-07-13T14:20:45;5.68;;;2.10;;
59756;SDS011;45631;51.962;5.974;2023-07-13T14:23:14;4.13;;;1.83;;
59756;SDS011;45631;51.962;5.974;2023-07-13T14:25:45;6.03;;;2.10;;
59756;SDS011;45631;51.962;5.974;2023-07-13T14:28:21;5.65;;;2.20;;
59756;SDS011;45631;51.962;5.974;2023-07-13T14:30:53;7.22;;;2.28;;
59756;SDS011;45631;51.962;5.974;2023-07-13T14:33:23;5.78;;;1.92;;
59756;SDS011;45631;51.962;5.974;2023-07-13T14:35:51;4.50;;;1.90;;
59756;SDS011;45631;51.962;5.974;2023-07-13T14:38:19;5.22;;;1.65;;
59756;SDS011;45631;51.962;5.974;2023-07-13T14:40:48;5.47;;;2.20;;
59756;SDS011;45631;51.962;5.974;2023-07-13T14:43:17;5.00;;;1.80;;
59756;SDS011;45631;51.962;5.974;2023-07-13T14:45:46;6.55;;;1.88;;
59756;SDS011;45631;51.962;5.974;2023-07-13T14:48:18;6.32;;;1.98;;
59756;SDS011;45631;51.962;5.974;2023-07-13T14:50:51;4.20;;;1.73;;
59756;SDS011;45631;51.962;5.974;2023-07-13T14:53:22;5.53;;;2.00;;
59756;SDS011;45631;51.962;5.974;2023-07-13T14:55:50;4.80;;;1.75;;
59756;SDS011;45631;51.962;5.974;2023-07-13T14:58:21;5.18;;;1.92;;
59756;SDS011;45631;51.962;5.974;2023-07-13T15:00:49;4.75;;;1.80;;
59756;SDS011;45631;51.962;5.974;2023-07-13T15:03:23;4.88;;;1.70;;
59756;SDS011;45631;51.962;5.974;2023-07-13T15:05:54;4.85;;;1.80;;
59756;SDS011;45631;51.962;5.974;2023-07-13T15:08:22;6.57;;;1.85;;
59756;SDS011;45631;51.962;5.974;2023-07-13T15:10:52;5.65;;;1.90;;